sensor_id;sensor_type;location;lat;lon;timestamp;temperature;humidity
17632;DHT22;8934;51.194;17.150;2023-05-27T00:00:45;10.20;99.90
17632;DHT22;8934;51.194;17.150;2023-05-27T00:03:34;10.10;99.90
17632;DHT22;8934;51.194;17.150;2023-05-27T00:06:22;10.10;99.90
17632;DHT22;8934;51.194;17.150;2023-05-27T00:09:10;10.00;99.90
17632;DHT22;8934;51.194;17.150;2023-05-27T00:11:57;10.00;99.90
17632;DHT22;8934;51.194;17.150;2023-05-27T00:14:45;9.90;99.90
17632;DHT22;8934;51.194;17.150;2023-05-27T00:17:33;9.90;99.90
17632;DHT22;8934;51.194;17.150;2023-05-27T00:20:23;9.80;99.90
17632;DHT22;8934;51.194;17.150;2023-05-27T00:23:11;9.80;99.90
17632;DHT22;8934;51.194;17.150;2023-05-27T00:25:58;9.80;99.90
17632;DHT22;8934;51.194;17.150;2023-05-27T00:28:46;9.70;99.90
17632;DHT22;8934;51.194;17.150;2023-05-27T00:31:34;9.60;99.90
17632;DHT22;8934;51.194;17.150;2023-05-27T00:34:21;9.60;99.90
17632;DHT22;8934;51.194;17.150;2023-05-27T00:37:10;9.60;99.90
17632;DHT22;8934;51.194;17.150;2023-05-27T00:40:00;9.60;99.90
17632;DHT22;8934;51.194;17.150;2023-05-27T00:42:48;9.50;99.90
17632;DHT22;8934;51.194;17.150;2023-05-27T00:45:36;9.50;99.90
17632;DHT22;8934;51.194;17.150;2023-05-27T00:48:23;9.40;99.90
17632;DHT22;8934;51.194;17.150;2023-05-27T00:51:11;9.40;99.90
17632;DHT22;8934;51.194;17.150;2023-05-27T00:54:00;9.40;99.90
17632;DHT22;8934;51.194;17.150;2023-05-27T00:56:48;9.30;99.90
17632;DHT22;8934;51.194;17.150;2023-05-27T00:59:36;9.30;99.90
17632;DHT22;8934;51.194;17.150;2023-05-27T01:02:23;9.30;99.90
17632;DHT22;8934;51.194;17.150;2023-05-27T01:05:14;9.30;99.90
17632;DHT22;8934;51.194;17.150;2023-05-27T01:08:14;9.20;99.90
17632;DHT22;8934;51.194;17.150;2023-05-27T01:11:08;9.20;99.90
17632;DHT22;8934;51.194;17.150;2023-05-27T01:14:00;9.20;99.90
17632;DHT22;8934;51.194;17.150;2023-05-27T01:16:51;9.10;99.90
17632;DHT22;8934;51.194;17.150;2023-05-27T01:19:44;9.10;99.90
17632;DHT22;8934;51.194;17.150;2023-05-27T01:22:33;9.00;99.90
17632;DHT22;8934;51.194;17.150;2023-05-27T01:25:22;8.90;99.90
17632;DHT22;8934;51.194;17.150;2023-05-27T01:28:09;8.80;99.90
17632;DHT22;8934;51.194;17.150;2023-05-27T01:31:01;8.70;99.90
17632;DHT22;8934;51.194;17.150;2023-05-27T01:33:57;8.50;99.90
17632;DHT22;8934;51.194;17.150;2023-05-27T01:36:50;8.40;99.90
17632;DHT22;8934;51.194;17.150;2023-05-27T01:39:42;8.20;99.90
17632;DHT22;8934;51.194;17.150;2023-05-27T01:42:30;8.10;99.90
17632;DHT22;8934;51.194;17.150;2023-05-27T01:45:18;8.00;99.90
17632;DHT22;8934;51.194;17.150;2023-05-27T01:48:06;7.90;99.90
17632;DHT22;8934;51.194;17.150;2023-05-27T01:50:57;7.80;99.90
17632;DHT22;8934;51.194;17.150;2023-05-27T01:53:45;7.70;99.90
17632;DHT22;8934;51.194;17.150;2023-05-27T01:56:34;7.60;99.90
17632;DHT22;8934;51.194;17.150;2023-05-27T01:59:23;7.50;99.90
17632;DHT22;8934;51.194;17.150;2023-05-27T02:02:10;7.40;99.90
17632;DHT22;8934;51.194;17.150;2023-05-27T02:04:58;7.40;99.90
17632;DHT22;8934;51.194;17.150;2023-05-27T02:07:46;7.30;99.90
17632;DHT22;8934;51.194;17.150;2023-05-27T02:10:34;7.30;99.90
17632;DHT22;8934;51.194;17.150;2023-05-27T02:13:23;7.20;99.90
17632;DHT22;8934;51.194;17.150;2023-05-27T02:16:10;7.10;99.90
17632;DHT22;8934;51.194;17.150;2023-05-27T02:19:00;7.00;99.90
17632;DHT22;8934;51.194;17.150;2023-05-27T02:26:03;6.90;99.90
17632;DHT22;8934;51.194;17.150;2023-05-27T02:28:54;7.10;99.90
17632;DHT22;8934;51.194;17.150;2023-05-27T02:31:42;7.20;99.90
17632;DHT22;8934;51.194;17.150;2023-05-27T02:34:29;7.40;99.90
17632;DHT22;8934;51.194;17.150;2023-05-27T02:37:17;7.60;99.90
17632;DHT22;8934;51.194;17.150;2023-05-27T02:40:06;7.60;99.90
17632;DHT22;8934;51.194;17.150;2023-05-27T02:42:55;7.60;99.90
17632;DHT22;8934;51.194;17.150;2023-05-27T02:45:44;7.60;99.90
17632;DHT22;8934;51.194;17.150;2023-05-27T02:48:32;7.50;99.90
17632;DHT22;8934;51.194;17.150;2023-05-27T02:51:21;7.40;99.90
17632;DHT22;8934;51.194;17.150;2023-05-27T02:54:09;7.20;99.90
17632;DHT22;8934;51.194;17.150;2023-05-27T02:56:56;7.10;99.90
17632;DHT22;8934;51.194;17.150;2023-05-27T02:59:44;7.00;99.90
17632;DHT22;8934;51.194;17.150;2023-05-27T03:02:33;7.00;99.90
17632;DHT22;8934;51.194;17.150;2023-05-27T03:05:21;6.90;99.90
17632;DHT22;8934;51.194;17.150;2023-05-27T03:08:09;6.80;99.90
17632;DHT22;8934;51.194;17.150;2023-05-27T03:10:57;6.70;99.90
17632;DHT22;8934;51.194;17.150;2023-05-27T03:13:44;6.70;99.90
17632;DHT22;8934;51.194;17.150;2023-05-27T03:16:33;6.60;99.90
17632;DHT22;8934;51.194;17.150;2023-05-27T03:19:23;6.60;99.90
17632;DHT22;8934;51.194;17.150;2023-05-27T03:22:11;6.50;99.90
17632;DHT22;8934;51.194;17.150;2023-05-27T03:24:59;6.50;99.90
17632;DHT22;8934;51.194;17.150;2023-05-27T03:27:48;6.50;99.90
17632;DHT22;8934;51.194;17.150;2023-05-27T03:30:36;6.50;99.90
17632;DHT22;8934;51.194;17.150;2023-05-27T03:33:25;6.60;99.90
17632;DHT22;8934;51.194;17.150;2023-05-27T03:36:14;6.70;99.90
17632;DHT22;8934;51.194;17.150;2023-05-27T03:39:02;6.80;99.90
17632;DHT22;8934;51.194;17.150;2023-05-27T03:41:53;6.80;99.90
17632;DHT22;8934;51.194;17.150;2023-05-27T03:44:41;6.90;99.90
17632;DHT22;8934;51.194;17.150;2023-05-27T03:47:29;6.90;99.90
17632;DHT22;8934;51.194;17.150;2023-05-27T03:50:17;6.90;99.90
17632;DHT22;8934;51.194;17.150;2023-05-27T03:53:07;6.90;99.90
17632;DHT22;8934;51.194;17.150;2023-05-27T03:55:54;7.00;99.90
17632;DHT22;8934;51.194;17.150;2023-05-27T03:58:43;7.00;99.90
17632;DHT22;8934;51.194;17.150;2023-05-27T04:01:32;7.10;99.90
17632;DHT22;8934;51.194;17.150;2023-05-27T04:04:19;7.10;99.90
17632;DHT22;8934;51.194;17.150;2023-05-27T04:07:07;7.20;99.90
17632;DHT22;8934;51.194;17.150;2023-05-27T04:09:56;7.30;99.90
17632;DHT22;8934;51.194;17.150;2023-05-27T04:12:44;7.40;99.90
17632;DHT22;8934;51.194;17.150;2023-05-27T04:15:32;7.50;99.90
17632;DHT22;8934;51.194;17.150;2023-05-27T04:18:20;7.60;99.90
17632;DHT22;8934;51.194;17.150;2023-05-27T04:21:08;7.70;99.90
17632;DHT22;8934;51.194;17.150;2023-05-27T04:23:56;7.80;99.90
17632;DHT22;8934;51.194;17.150;2023-05-27T04:26:45;7.90;99.90
17632;DHT22;8934;51.194;17.150;2023-05-27T04:29:35;8.00;99.90
17632;DHT22;8934;51.194;17.150;2023-05-27T04:32:25;8.10;99.90
17632;DHT22;8934;51.194;17.150;2023-05-27T04:35:16;8.20;99.90
17632;DHT22;8934;51.194;17.150;2023-05-27T04:38:04;8.30;99.90
17632;DHT22;8934;51.194;17.150;2023-05-27T04:41:05;8.40;99.90
17632;DHT22;8934;51.194;17.150;2023-05-27T04:44:14;8.50;99.90
17632;DHT22;8934;51.194;17.150;2023-05-27T04:47:05;8.60;99.90
17632;DHT22;8934;51.194;17.150;2023-05-27T04:49:55;8.80;99.90
17632;DHT22;8934;51.194;17.150;2023-05-27T04:52:42;8.90;99.90
17632;DHT22;8934;51.194;17.150;2023-05-27T04:55:31;8.90;99.90
17632;DHT22;8934;51.194;17.150;2023-05-27T04:58:18;9.10;99.90
17632;DHT22;8934;51.194;17.150;2023-05-27T05:01:09;9.20;99.90
17632;DHT22;8934;51.194;17.150;2023-05-27T05:04:11;9.30;99.90
17632;DHT22;8934;51.194;17.150;2023-05-27T05:07:19;9.40;99.90
17632;DHT22;8934;51.194;17.150;2023-05-27T05:10:09;9.60;99.90
17632;DHT22;8934;51.194;17.150;2023-05-27T05:13:06;9.70;99.90
17632;DHT22;8934;51.194;17.150;2023-05-27T05:15:53;9.80;99.90
17632;DHT22;8934;51.194;17.150;2023-05-27T05:18:42;10.00;99.90
17632;DHT22;8934;51.194;17.150;2023-05-27T05:21:30;10.10;99.90
17632;DHT22;8934;51.194;17.150;2023-05-27T05:24:18;10.20;99.90
17632;DHT22;8934;51.194;17.150;2023-05-27T05:27:07;10.30;99.90
17632;DHT22;8934;51.194;17.150;2023-05-27T05:29:55;10.50;99.90
17632;DHT22;8934;51.194;17.150;2023-05-27T05:32:42;10.60;99.90
17632;DHT22;8934;51.194;17.150;2023-05-27T05:35:31;10.70;99.90
17632;DHT22;8934;51.194;17.150;2023-05-27T05:38:33;10.80;99.90
17632;DHT22;8934;51.194;17.150;2023-05-27T05:41:21;11.00;99.90
17632;DHT22;8934;51.194;17.150;2023-05-27T05:44:09;11.10;99.90
17632;DHT22;8934;51.194;17.150;2023-05-27T05:46:57;11.20;99.90
17632;DHT22;8934;51.194;17.150;2023-05-27T05:49:46;11.30;99.90
17632;DHT22;8934;51.194;17.150;2023-05-27T05:52:35;11.50;99.90
17632;DHT22;8934;51.194;17.150;2023-05-27T05:55:22;11.60;99.90
17632;DHT22;8934;51.194;17.150;2023-05-27T05:58:10;11.80;99.90
17632;DHT22;8934;51.194;17.150;2023-05-27T06:00:59;11.90;99.90
17632;DHT22;8934;51.194;17.150;2023-05-27T06:03:52;12.00;99.90
17632;DHT22;8934;51.194;17.150;2023-05-27T06:06:49;12.20;99.90
17632;DHT22;8934;51.194;17.150;2023-05-27T06:10:13;12.30;99.90
17632;DHT22;8934;51.194;17.150;2023-05-27T06:13:03;12.50;99.90
17632;DHT22;8934;51.194;17.150;2023-05-27T06:15:52;12.60;99.90
17632;DHT22;8934;51.194;17.150;2023-05-27T06:18:42;12.70;99.90
17632;DHT22;8934;51.194;17.150;2023-05-27T06:21:33;12.90;99.90
17632;DHT22;8934;51.194;17.150;2023-05-27T06:24:35;13.00;99.90
17632;DHT22;8934;51.194;17.150;2023-05-27T06:27:35;13.10;99.90
17632;DHT22;8934;51.194;17.150;2023-05-27T06:30:23;13.20;99.90
17632;DHT22;8934;51.194;17.150;2023-05-27T06:33:12;13.20;99.90
17632;DHT22;8934;51.194;17.150;2023-05-27T06:36:01;13.30;99.90
17632;DHT22;8934;51.194;17.150;2023-05-27T06:38:49;13.40;99.90
17632;DHT22;8934;51.194;17.150;2023-05-27T06:41:38;13.40;99.90
17632;DHT22;8934;51.194;17.150;2023-05-27T06:44:53;13.40;99.90
17632;DHT22;8934;51.194;17.150;2023-05-27T06:47:43;13.50;99.90
17632;DHT22;8934;51.194;17.150;2023-05-27T06:50:31;13.70;99.90
17632;DHT22;8934;51.194;17.150;2023-05-27T06:53:18;13.80;99.90
17632;DHT22;8934;51.194;17.150;2023-05-27T06:56:21;14.00;99.90
17632;DHT22;8934;51.194;17.150;2023-05-27T06:59:35;14.10;99.90
17632;DHT22;8934;51.194;17.150;2023-05-27T07:02:24;14.30;99.90
17632;DHT22;8934;51.194;17.150;2023-05-27T07:05:11;14.40;99.90
17632;DHT22;8934;51.194;17.150;2023-05-27T07:07:59;14.60;99.90
17632;DHT22;8934;51.194;17.150;2023-05-27T07:10:47;14.60;99.90
17632;DHT22;8934;51.194;17.150;2023-05-27T07:13:35;14.70;99.90
17632;DHT22;8934;51.194;17.150;2023-05-27T07:16:24;14.80;99.90
17632;DHT22;8934;51.194;17.150;2023-05-27T07:19:14;14.90;99.90
17632;DHT22;8934;51.194;17.150;2023-05-27T07:22:09;15.00;99.90
17632;DHT22;8934;51.194;17.150;2023-05-27T07:24:57;15.20;99.90
17632;DHT22;8934;51.194;17.150;2023-05-27T07:27:48;15.50;99.90
17632;DHT22;8934;51.194;17.150;2023-05-27T07:30:36;15.70;99.90
17632;DHT22;8934;51.194;17.150;2023-05-27T07:33:25;15.80;99.90
17632;DHT22;8934;51.194;17.150;2023-05-27T07:36:14;15.90;99.90
17632;DHT22;8934;51.194;17.150;2023-05-27T07:39:02;16.10;99.90
17632;DHT22;8934;51.194;17.150;2023-05-27T07:41:50;16.30;99.90
17632;DHT22;8934;51.194;17.150;2023-05-27T07:44:37;16.30;99.90
17632;DHT22;8934;51.194;17.150;2023-05-27T07:47:25;16.50;99.90
17632;DHT22;8934;51.194;17.150;2023-05-27T07:50:13;16.70;99.90
17632;DHT22;8934;51.194;17.150;2023-05-27T07:53:04;16.80;99.90
17632;DHT22;8934;51.194;17.150;2023-05-27T07:55:54;17.00;99.90
17632;DHT22;8934;51.194;17.150;2023-05-27T07:58:42;17.10;99.90
17632;DHT22;8934;51.194;17.150;2023-05-27T08:01:31;17.20;99.90
17632;DHT22;8934;51.194;17.150;2023-05-27T08:04:20;17.10;99.90
17632;DHT22;8934;51.194;17.150;2023-05-27T08:07:40;17.10;99.90
17632;DHT22;8934;51.194;17.150;2023-05-27T08:10:48;17.20;99.90
17632;DHT22;8934;51.194;17.150;2023-05-27T08:13:57;17.20;99.90
17632;DHT22;8934;51.194;17.150;2023-05-27T08:17:04;17.40;99.90
17632;DHT22;8934;51.194;17.150;2023-05-27T08:20:09;17.60;99.90
17632;DHT22;8934;51.194;17.150;2023-05-27T08:23:02;17.60;99.90
17632;DHT22;8934;51.194;17.150;2023-05-27T08:26:12;17.70;99.90
17632;DHT22;8934;51.194;17.150;2023-05-27T08:29:28;17.80;99.90
17632;DHT22;8934;51.194;17.150;2023-05-27T08:32:35;17.70;99.90
17632;DHT22;8934;51.194;17.150;2023-05-27T08:35:24;17.80;99.90
17632;DHT22;8934;51.194;17.150;2023-05-27T08:38:12;17.90;99.90
17632;DHT22;8934;51.194;17.150;2023-05-27T08:41:00;18.20;99.90
17632;DHT22;8934;51.194;17.150;2023-05-27T08:43:49;18.40;99.90
17632;DHT22;8934;51.194;17.150;2023-05-27T08:46:42;18.60;99.90
17632;DHT22;8934;51.194;17.150;2023-05-27T08:49:31;18.80;99.90
17632;DHT22;8934;51.194;17.150;2023-05-27T08:52:19;18.80;99.90
17632;DHT22;8934;51.194;17.150;2023-05-27T08:55:08;18.80;99.90
17632;DHT22;8934;51.194;17.150;2023-05-27T08:57:58;18.60;99.90
17632;DHT22;8934;51.194;17.150;2023-05-27T09:00:51;18.80;99.90
17632;DHT22;8934;51.194;17.150;2023-05-27T09:03:41;18.70;99.90
17632;DHT22;8934;51.194;17.150;2023-05-27T09:06:30;18.70;99.90
17632;DHT22;8934;51.194;17.150;2023-05-27T09:09:18;18.90;99.90
17632;DHT22;8934;51.194;17.150;2023-05-27T09:12:07;19.10;99.90
17632;DHT22;8934;51.194;17.150;2023-05-27T09:14:56;19.40;99.90
17632;DHT22;8934;51.194;17.150;2023-05-27T09:17:46;19.80;99.90
17632;DHT22;8934;51.194;17.150;2023-05-27T09:20:34;20.20;99.90
17632;DHT22;8934;51.194;17.150;2023-05-27T09:23:21;20.20;99.90
17632;DHT22;8934;51.194;17.150;2023-05-27T09:26:09;20.10;99.90
17632;DHT22;8934;51.194;17.150;2023-05-27T09:28:58;20.00;99.90
17632;DHT22;8934;51.194;17.150;2023-05-27T09:31:52;20.20;99.90
17632;DHT22;8934;51.194;17.150;2023-05-27T09:34:42;20.30;99.90
17632;DHT22;8934;51.194;17.150;2023-05-27T09:37:33;20.60;99.80
17632;DHT22;8934;51.194;17.150;2023-05-27T09:40:22;20.60;99.50
17632;DHT22;8934;51.194;17.150;2023-05-27T09:43:13;20.60;98.00
17632;DHT22;8934;51.194;17.150;2023-05-27T09:46:03;20.60;99.60
17632;DHT22;8934;51.194;17.150;2023-05-27T09:48:54;20.70;99.60
17632;DHT22;8934;51.194;17.150;2023-05-27T09:51:45;20.90;98.00
17632;DHT22;8934;51.194;17.150;2023-05-27T09:54:34;21.00;98.30
17632;DHT22;8934;51.194;17.150;2023-05-27T09:57:22;21.20;98.70
17632;DHT22;8934;51.194;17.150;2023-05-27T10:00:12;21.30;93.10
17632;DHT22;8934;51.194;17.150;2023-05-27T10:03:01;21.30;94.90
17632;DHT22;8934;51.194;17.150;2023-05-27T10:05:50;21.30;95.30
17632;DHT22;8934;51.194;17.150;2023-05-27T10:08:41;21.20;94.10
17632;DHT22;8934;51.194;17.150;2023-05-27T10:11:31;21.40;98.40
17632;DHT22;8934;51.194;17.150;2023-05-27T10:14:18;21.90;94.80
17632;DHT22;8934;51.194;17.150;2023-05-27T10:17:06;22.20;92.20
17632;DHT22;8934;51.194;17.150;2023-05-27T10:19:54;22.20;91.30
17632;DHT22;8934;51.194;17.150;2023-05-27T10:22:43;22.00;92.30
17632;DHT22;8934;51.194;17.150;2023-05-27T10:25:37;22.10;91.40
17632;DHT22;8934;51.194;17.150;2023-05-27T10:28:29;22.20;92.00
17632;DHT22;8934;51.194;17.150;2023-05-27T10:31:18;22.10;90.90
17632;DHT22;8934;51.194;17.150;2023-05-27T10:34:06;22.10;89.50
17632;DHT22;8934;51.194;17.150;2023-05-27T10:36:58;22.20;87.60
17632;DHT22;8934;51.194;17.150;2023-05-27T10:39:53;22.20;91.20
17632;DHT22;8934;51.194;17.150;2023-05-27T10:42:43;22.30;90.90
17632;DHT22;8934;51.194;17.150;2023-05-27T10:45:34;22.70;89.20
17632;DHT22;8934;51.194;17.150;2023-05-27T10:48:27;23.30;89.60
17632;DHT22;8934;51.194;17.150;2023-05-27T10:51:15;23.20;76.10
17632;DHT22;8934;51.194;17.150;2023-05-27T10:54:03;22.70;84.50
17632;DHT22;8934;51.194;17.150;2023-05-27T10:56:56;22.50;88.10
17632;DHT22;8934;51.194;17.150;2023-05-27T10:59:49;22.80;83.00
17632;DHT22;8934;51.194;17.150;2023-05-27T11:02:38;22.90;85.30
17632;DHT22;8934;51.194;17.150;2023-05-27T11:05:28;22.90;89.70
17632;DHT22;8934;51.194;17.150;2023-05-27T11:08:18;23.00;86.50
17632;DHT22;8934;51.194;17.150;2023-05-27T11:11:09;23.20;84.00
17632;DHT22;8934;51.194;17.150;2023-05-27T11:13:57;23.00;78.20
17632;DHT22;8934;51.194;17.150;2023-05-27T11:16:47;23.00;81.60
17632;DHT22;8934;51.194;17.150;2023-05-27T11:19:38;22.70;82.40
17632;DHT22;8934;51.194;17.150;2023-05-27T11:22:26;22.60;83.00
17632;DHT22;8934;51.194;17.150;2023-05-27T11:25:14;22.40;85.40
17632;DHT22;8934;51.194;17.150;2023-05-27T11:28:02;22.50;85.00
17632;DHT22;8934;51.194;17.150;2023-05-27T11:30:50;22.90;82.40
17632;DHT22;8934;51.194;17.150;2023-05-27T11:33:42;23.10;83.60
17632;DHT22;8934;51.194;17.150;2023-05-27T11:36:30;23.60;84.10
17632;DHT22;8934;51.194;17.150;2023-05-27T11:39:18;23.80;89.50
17632;DHT22;8934;51.194;17.150;2023-05-27T11:42:08;24.10;83.70
17632;DHT22;8934;51.194;17.150;2023-05-27T11:44:57;23.90;76.00
17632;DHT22;8934;51.194;17.150;2023-05-27T11:47:47;23.90;77.40
17632;DHT22;8934;51.194;17.150;2023-05-27T11:50:39;23.50;76.90
17632;DHT22;8934;51.194;17.150;2023-05-27T11:53:29;23.70;76.90
17632;DHT22;8934;51.194;17.150;2023-05-27T11:56:17;23.90;84.80
17632;DHT22;8934;51.194;17.150;2023-05-27T11:59:04;24.30;87.10
17632;DHT22;8934;51.194;17.150;2023-05-27T12:01:52;24.40;80.50
17632;DHT22;8934;51.194;17.150;2023-05-27T12:04:41;24.40;80.30
17632;DHT22;8934;51.194;17.150;2023-05-27T12:07:30;24.40;76.60
17632;DHT22;8934;51.194;17.150;2023-05-27T12:10:18;24.40;74.60
17632;DHT22;8934;51.194;17.150;2023-05-27T12:13:06;24.10;79.10
17632;DHT22;8934;51.194;17.150;2023-05-27T12:15:54;24.10;79.50
17632;DHT22;8934;51.194;17.150;2023-05-27T12:18:41;24.00;79.90
17632;DHT22;8934;51.194;17.150;2023-05-27T12:21:29;24.40;79.70
17632;DHT22;8934;51.194;17.150;2023-05-27T12:24:18;24.60;80.70
17632;DHT22;8934;51.194;17.150;2023-05-27T12:27:06;24.30;77.50
17632;DHT22;8934;51.194;17.150;2023-05-27T12:29:54;24.40;79.60
17632;DHT22;8934;51.194;17.150;2023-05-27T12:32:41;24.60;84.90
17632;DHT22;8934;51.194;17.150;2023-05-27T12:35:29;25.10;79.70
17632;DHT22;8934;51.194;17.150;2023-05-27T12:38:17;25.30;83.50
17632;DHT22;8934;51.194;17.150;2023-05-27T12:41:06;25.30;80.60
17632;DHT22;8934;51.194;17.150;2023-05-27T12:43:54;25.60;73.80
17632;DHT22;8934;51.194;17.150;2023-05-27T12:46:42;25.40;79.20
17632;DHT22;8934;51.194;17.150;2023-05-27T12:49:29;25.40;72.60
17632;DHT22;8934;51.194;17.150;2023-05-27T12:52:17;25.30;76.70
17632;DHT22;8934;51.194;17.150;2023-05-27T12:55:06;25.40;75.30
17632;DHT22;8934;51.194;17.150;2023-05-27T12:57:55;25.60;73.40
17632;DHT22;8934;51.194;17.150;2023-05-27T13:00:43;25.40;72.80
17632;DHT22;8934;51.194;17.150;2023-05-27T13:03:31;25.00;76.40
17632;DHT22;8934;51.194;17.150;2023-05-27T13:06:19;25.00;76.00
17632;DHT22;8934;51.194;17.150;2023-05-27T13:09:06;25.00;77.30
17632;DHT22;8934;51.194;17.150;2023-05-27T13:11:54;25.40;80.40
17632;DHT22;8934;51.194;17.150;2023-05-27T13:14:44;25.80;78.20
17632;DHT22;8934;51.194;17.150;2023-05-27T13:17:32;26.30;74.90
17632;DHT22;8934;51.194;17.150;2023-05-27T13:20:23;26.60;75.00
17632;DHT22;8934;51.194;17.150;2023-05-27T13:23:11;26.20;69.00
17632;DHT22;8934;51.194;17.150;2023-05-27T13:25:59;25.80;76.40
17632;DHT22;8934;51.194;17.150;2023-05-27T13:28:47;25.70;73.80
17632;DHT22;8934;51.194;17.150;2023-05-27T13:31:36;25.90;76.20
17632;DHT22;8934;51.194;17.150;2023-05-27T13:34:23;25.90;70.00
17632;DHT22;8934;51.194;17.150;2023-05-27T13:37:13;25.70;72.00
17632;DHT22;8934;51.194;17.150;2023-05-27T13:40:01;25.60;71.80
17632;DHT22;8934;51.194;17.150;2023-05-27T13:42:48;25.50;73.80
17632;DHT22;8934;51.194;17.150;2023-05-27T13:45:36;25.60;69.30
17632;DHT22;8934;51.194;17.150;2023-05-27T13:48:24;25.30;76.00
17632;DHT22;8934;51.194;17.150;2023-05-27T13:51:12;25.40;74.00
17632;DHT22;8934;51.194;17.150;2023-05-27T13:54:00;25.40;75.30
17632;DHT22;8934;51.194;17.150;2023-05-27T13:56:47;25.30;74.90
17632;DHT22;8934;51.194;17.150;2023-05-27T13:59:35;25.40;76.70
17632;DHT22;8934;51.194;17.150;2023-05-27T14:02:23;25.60;76.00
17632;DHT22;8934;51.194;17.150;2023-05-27T14:05:12;25.70;68.60
17632;DHT22;8934;51.194;17.150;2023-05-27T14:08:00;25.70;71.30
17632;DHT22;8934;51.194;17.150;2023-05-27T14:10:49;25.90;75.70
17632;DHT22;8934;51.194;17.150;2023-05-27T14:13:37;26.20;75.50
17632;DHT22;8934;51.194;17.150;2023-05-27T14:16:25;26.60;74.30
17632;DHT22;8934;51.194;17.150;2023-05-27T14:19:13;26.80;67.30
17632;DHT22;8934;51.194;17.150;2023-05-27T14:22:02;26.40;65.30
17632;DHT22;8934;51.194;17.150;2023-05-27T14:24:50;26.20;73.50
17632;DHT22;8934;51.194;17.150;2023-05-27T14:27:40;26.30;70.50
17632;DHT22;8934;51.194;17.150;2023-05-27T14:30:28;26.30;71.90
17632;DHT22;8934;51.194;17.150;2023-05-27T14:33:17;26.40;68.10
17632;DHT22;8934;51.194;17.150;2023-05-27T14:36:05;26.20;73.30
17632;DHT22;8934;51.194;17.150;2023-05-27T14:38:55;25.80;70.20
17632;DHT22;8934;51.194;17.150;2023-05-27T14:41:42;25.80;69.80
17632;DHT22;8934;51.194;17.150;2023-05-27T14:44:31;25.80;68.50
17632;DHT22;8934;51.194;17.150;2023-05-27T14:47:19;25.90;73.30
17632;DHT22;8934;51.194;17.150;2023-05-27T14:50:08;26.20;71.30
17632;DHT22;8934;51.194;17.150;2023-05-27T14:52:57;26.50;73.20
17632;DHT22;8934;51.194;17.150;2023-05-27T14:55:46;26.80;69.50
17632;DHT22;8934;51.194;17.150;2023-05-27T14:58:35;27.00;69.60
17632;DHT22;8934;51.194;17.150;2023-05-27T15:01:22;26.70;65.70
17632;DHT22;8934;51.194;17.150;2023-05-27T15:04:10;26.20;65.20
17632;DHT22;8934;51.194;17.150;2023-05-27T15:06:58;25.90;68.80
17632;DHT22;8934;51.194;17.150;2023-05-27T15:09:46;25.60;71.00
17632;DHT22;8934;51.194;17.150;2023-05-27T15:12:43;25.80;71.60
17632;DHT22;8934;51.194;17.150;2023-05-27T15:15:33;26.40;68.60
17632;DHT22;8934;51.194;17.150;2023-05-27T15:18:21;26.60;70.70
17632;DHT22;8934;51.194;17.150;2023-05-27T15:21:10;27.00;71.80
17632;DHT22;8934;51.194;17.150;2023-05-27T15:23:58;27.10;69.80
17632;DHT22;8934;51.194;17.150;2023-05-27T15:26:46;27.40;66.10
17632;DHT22;8934;51.194;17.150;2023-05-27T15:29:35;26.90;70.10
17632;DHT22;8934;51.194;17.150;2023-05-27T15:32:23;26.70;65.80
17632;DHT22;8934;51.194;17.150;2023-05-27T15:35:10;26.50;66.10
17632;DHT22;8934;51.194;17.150;2023-05-27T15:37:59;26.30;65.40
17632;DHT22;8934;51.194;17.150;2023-05-27T15:40:47;26.30;66.90
17632;DHT22;8934;51.194;17.150;2023-05-27T15:43:34;26.50;66.10
17632;DHT22;8934;51.194;17.150;2023-05-27T15:46:23;26.60;68.70
17632;DHT22;8934;51.194;17.150;2023-05-27T15:49:13;26.60;66.10
17632;DHT22;8934;51.194;17.150;2023-05-27T15:52:01;26.60;66.50
17632;DHT22;8934;51.194;17.150;2023-05-27T15:54:49;26.30;68.00
17632;DHT22;8934;51.194;17.150;2023-05-27T15:57:36;26.10;66.70
17632;DHT22;8934;51.194;17.150;2023-05-27T16:00:24;26.00;69.00
17632;DHT22;8934;51.194;17.150;2023-05-27T16:03:13;26.00;65.80
17632;DHT22;8934;51.194;17.150;2023-05-27T16:06:01;25.90;65.60
17632;DHT22;8934;51.194;17.150;2023-05-27T16:08:51;25.80;64.00
17632;DHT22;8934;51.194;17.150;2023-05-27T16:11:40;25.70;66.30
17632;DHT22;8934;51.194;17.150;2023-05-27T16:14:27;25.70;66.30
17632;DHT22;8934;51.194;17.150;2023-05-27T16:17:15;26.10;70.70
17632;DHT22;8934;51.194;17.150;2023-05-27T16:20:05;26.40;67.40
17632;DHT22;8934;51.194;17.150;2023-05-27T16:22:53;26.70;64.10
17632;DHT22;8934;51.194;17.150;2023-05-27T16:25:41;26.80;63.30
17632;DHT22;8934;51.194;17.150;2023-05-27T16:28:29;26.50;68.00
17632;DHT22;8934;51.194;17.150;2023-05-27T16:31:16;26.40;67.50
17632;DHT22;8934;51.194;17.150;2023-05-27T16:34:05;26.30;67.40
17632;DHT22;8934;51.194;17.150;2023-05-27T16:36:54;26.30;67.80
17632;DHT22;8934;51.194;17.150;2023-05-27T16:39:42;26.00;69.10
17632;DHT22;8934;51.194;17.150;2023-05-27T16:42:29;25.90;70.80
17632;DHT22;8934;51.194;17.150;2023-05-27T16:45:18;25.90;65.80
17632;DHT22;8934;51.194;17.150;2023-05-27T16:48:05;25.70;68.80
17632;DHT22;8934;51.194;17.150;2023-05-27T16:50:54;25.70;69.60
17632;DHT22;8934;51.194;17.150;2023-05-27T16:53:43;25.60;67.60
17632;DHT22;8934;51.194;17.150;2023-05-27T16:56:31;25.60;69.00
17632;DHT22;8934;51.194;17.150;2023-05-27T16:59:19;25.70;66.00
17632;DHT22;8934;51.194;17.150;2023-05-27T17:02:07;25.60;69.20
17632;DHT22;8934;51.194;17.150;2023-05-27T17:04:54;25.30;70.00
17632;DHT22;8934;51.194;17.150;2023-05-27T17:07:42;25.10;68.50
17632;DHT22;8934;51.194;17.150;2023-05-27T17:10:31;24.90;69.30
17632;DHT22;8934;51.194;17.150;2023-05-27T17:13:19;24.80;71.70
17632;DHT22;8934;51.194;17.150;2023-05-27T17:16:06;24.70;70.30
17632;DHT22;8934;51.194;17.150;2023-05-27T17:18:54;24.70;71.60
17632;DHT22;8934;51.194;17.150;2023-05-27T17:21:41;24.60;72.20
17632;DHT22;8934;51.194;17.150;2023-05-27T17:24:30;24.60;73.00
17632;DHT22;8934;51.194;17.150;2023-05-27T17:27:19;24.80;74.90
17632;DHT22;8934;51.194;17.150;2023-05-27T17:30:07;24.50;73.50
17632;DHT22;8934;51.194;17.150;2023-05-27T17:32:55;24.30;75.50
17632;DHT22;8934;51.194;17.150;2023-05-27T17:35:43;24.10;74.60
17632;DHT22;8934;51.194;17.150;2023-05-27T17:38:30;24.00;75.70
17632;DHT22;8934;51.194;17.150;2023-05-27T17:41:18;23.80;73.90
17632;DHT22;8934;51.194;17.150;2023-05-27T17:44:07;23.40;76.00
17632;DHT22;8934;51.194;17.150;2023-05-27T17:46:54;23.20;77.20
17632;DHT22;8934;51.194;17.150;2023-05-27T17:49:42;23.00;77.30
17632;DHT22;8934;51.194;17.150;2023-05-27T17:52:29;22.70;76.50
17632;DHT22;8934;51.194;17.150;2023-05-27T17:55:17;22.40;76.90
17632;DHT22;8934;51.194;17.150;2023-05-27T17:58:04;22.00;77.30
17632;DHT22;8934;51.194;17.150;2023-05-27T18:00:53;21.60;79.00